sensor_id;sensor_type;location;lat;lon;timestamp;P1;durP1;ratioP1;P2;durP2;ratioP2
59649;SDS011;46162;57.568;25.814;2023-02-21T00:01:51;0.68;;;0.00;;
59649;SDS011;46162;57.568;25.814;2023-02-21T00:04:38;1.30;;;0.10;;
59649;SDS011;46162;57.568;25.814;2023-02-21T00:07:25;1.73;;;0.10;;
59649;SDS011;46162;57.568;25.814;2023-02-21T00:10:12;1.92;;;0.10;;
59649;SDS011;46162;57.568;25.814;2023-02-21T00:12:59;1.35;;;0.10;;
59649;SDS011;46162;57.568;25.814;2023-02-21T00:15:46;2.03;;;0.20;;
59649;SDS011;46162;57.568;25.814;2023-02-21T00:18:33;2.47;;;0.10;;
59649;SDS011;46162;57.568;25.814;2023-02-21T00:21:19;3.45;;;0.20;;
59649;SDS011;46162;57.568;25.814;2023-02-21T00:24:05;1.98;;;0.10;;
59649;SDS011;46162;57.568;25.814;2023-02-21T00:26:52;3.20;;;0.30;;
59649;SDS011;46162;57.568;25.814;2023-02-21T00:29:38;2.25;;;0.20;;
59649;SDS011;46162;57.568;25.814;2023-02-21T00:32:25;3.65;;;0.40;;
59649;SDS011;46162;57.568;25.814;2023-02-21T00:35:11;2.53;;;0.32;;
59649;SDS011;46162;57.568;25.814;2023-02-21T00:37:57;4.32;;;0.30;;
59649;SDS011;46162;57.568;25.814;2023-02-21T00:40:43;2.78;;;0.45;;
59649;SDS011;46162;57.568;25.814;2023-02-21T00:43:30;4.18;;;0.57;;
59649;SDS011;46162;57.568;25.814;2023-02-21T00:46:17;4.55;;;0.75;;
59649;SDS011;46162;57.568;25.814;2023-02-21T00:49:05;4.15;;;0.80;;
59649;SDS011;46162;57.568;25.814;2023-02-21T00:51:51;3.03;;;0.52;;
59649;SDS011;46162;57.568;25.814;2023-02-21T00:54:38;4.43;;;0.90;;
59649;SDS011;46162;57.568;25.814;2023-02-21T00:57:24;3.53;;;0.93;;
59649;SDS011;46162;57.568;25.814;2023-02-21T01:00:13;3.03;;;0.98;;
59649;SDS011;46162;57.568;25.814;2023-02-21T01:03:01;3.58;;;0.95;;
59649;SDS011;46162;57.568;25.814;2023-02-21T01:05:49;5.25;;;1.30;;
59649;SDS011;46162;57.568;25.814;2023-02-21T01:08:35;3.63;;;0.88;;
59649;SDS011;46162;57.568;25.814;2023-02-21T01:11:21;4.22;;;1.25;;
59649;SDS011;46162;57.568;25.814;2023-02-21T01:14:08;4.03;;;1.27;;
59649;SDS011;46162;57.568;25.814;2023-02-21T01:16:54;4.25;;;1.33;;
59649;SDS011;46162;57.568;25.814;2023-02-21T01:19:40;4.90;;;1.60;;
59649;SDS011;46162;57.568;25.814;2023-02-21T01:22:28;5.78;;;1.80;;
59649;SDS011;46162;57.568;25.814;2023-02-21T01:25:14;4.57;;;1.13;;
59649;SDS011;46162;57.568;25.814;2023-02-21T01:28:00;4.28;;;1.02;;
59649;SDS011;46162;57.568;25.814;2023-02-21T01:30:46;5.80;;;1.70;;
59649;SDS011;46162;57.568;25.814;2023-02-21T01:33:36;5.10;;;1.50;;
59649;SDS011;46162;57.568;25.814;2023-02-21T01:36:24;4.22;;;1.10;;
59649;SDS011;46162;57.568;25.814;2023-02-21T01:39:12;5.60;;;1.60;;
59649;SDS011;46162;57.568;25.814;2023-02-21T01:41:58;6.07;;;1.50;;
59649;SDS011;46162;57.568;25.814;2023-02-21T01:44:46;4.93;;;1.58;;
59649;SDS011;46162;57.568;25.814;2023-02-21T01:47:33;4.50;;;1.55;;
59649;SDS011;46162;57.568;25.814;2023-02-21T01:50:20;4.32;;;1.75;;
59649;SDS011;46162;57.568;25.814;2023-02-21T01:53:10;5.65;;;1.92;;
59649;SDS011;46162;57.568;25.814;2023-02-21T01:56:00;3.75;;;1.50;;
59649;SDS011;46162;57.568;25.814;2023-02-21T01:58:48;4.88;;;1.70;;
59649;SDS011;46162;57.568;25.814;2023-02-21T02:01:39;5.22;;;2.20;;
59649;SDS011;46162;57.568;25.814;2023-02-21T02:04:31;6.68;;;2.78;;
59649;SDS011;46162;57.568;25.814;2023-02-21T02:07:19;6.22;;;2.30;;
59649;SDS011;46162;57.568;25.814;2023-02-21T02:10:08;6.65;;;2.53;;
59649;SDS011;46162;57.568;25.814;2023-02-21T02:13:09;6.20;;;2.45;;
59649;SDS011;46162;57.568;25.814;2023-02-21T02:15:54;6.45;;;2.65;;
59649;SDS011;46162;57.568;25.814;2023-02-21T02:24:49;6.22;;;2.63;;
59649;SDS011;46162;57.568;25.814;2023-02-21T02:36:53;6.18;;;2.88;;
59649;SDS011;46162;57.568;25.814;2023-02-21T02:39:31;5.55;;;2.45;;
59649;SDS011;46162;57.568;25.814;2023-02-21T02:42:08;5.72;;;2.70;;
59649;SDS011;46162;57.568;25.814;2023-02-21T02:44:43;6.78;;;3.08;;
59649;SDS011;46162;57.568;25.814;2023-02-21T02:47:21;8.45;;;3.35;;
59649;SDS011;46162;57.568;25.814;2023-02-21T02:49:53;8.45;;;3.30;;
59649;SDS011;46162;57.568;25.814;2023-02-21T02:52:27;6.43;;;3.53;;
59649;SDS011;46162;57.568;25.814;2023-02-21T02:54:57;8.27;;;3.85;;
59649;SDS011;46162;57.568;25.814;2023-02-21T02:57:28;8.95;;;4.07;;
59649;SDS011;46162;57.568;25.814;2023-02-21T03:00:04;10.32;;;4.07;;
59649;SDS011;46162;57.568;25.814;2023-02-21T03:02:36;9.25;;;4.13;;
59649;SDS011;46162;57.568;25.814;2023-02-21T03:08:13;9.85;;;4.50;;
59649;SDS011;46162;57.568;25.814;2023-02-21T03:10:51;9.35;;;4.63;;
59649;SDS011;46162;57.568;25.814;2023-02-21T03:13:27;10.48;;;4.75;;
59649;SDS011;46162;57.568;25.814;2023-02-21T03:16:03;10.50;;;4.80;;
59649;SDS011;46162;57.568;25.814;2023-02-21T03:18:38;9.98;;;4.63;;
59649;SDS011;46162;57.568;25.814;2023-02-21T03:21:10;11.93;;;4.90;;
59649;SDS011;46162;57.568;25.814;2023-02-21T03:23:43;11.10;;;6.53;;
59649;SDS011;46162;57.568;25.814;2023-02-21T03:26:16;9.60;;;5.10;;
59649;SDS011;46162;57.568;25.814;2023-02-21T03:28:48;10.43;;;5.85;;
59649;SDS011;46162;57.568;25.814;2023-02-21T03:31:20;11.35;;;6.10;;
59649;SDS011;46162;57.568;25.814;2023-02-21T03:33:53;13.73;;;6.20;;
59649;SDS011;46162;57.568;25.814;2023-02-21T03:36:21;8.77;;;3.40;;
59649;SDS011;46162;57.568;25.814;2023-02-21T03:38:53;10.87;;;5.87;;
59649;SDS011;46162;57.568;25.814;2023-02-21T03:41:23;10.93;;;5.63;;
59649;SDS011;46162;57.568;25.814;2023-02-21T03:43:51;11.30;;;6.00;;
59649;SDS011;46162;57.568;25.814;2023-02-21T03:46:20;12.50;;;5.57;;
59649;SDS011;46162;57.568;25.814;2023-02-21T03:48:49;11.32;;;5.78;;
59649;SDS011;46162;57.568;25.814;2023-02-21T03:51:25;10.63;;;5.78;;
59649;SDS011;46162;57.568;25.814;2023-02-21T03:53:55;12.30;;;6.03;;
59649;SDS011;46162;57.568;25.814;2023-02-21T03:56:32;12.25;;;5.95;;
59649;SDS011;46162;57.568;25.814;2023-02-21T03:59:22;10.40;;;5.05;;
59649;SDS011;46162;57.568;25.814;2023-02-21T04:01:51;10.90;;;5.68;;
59649;SDS011;46162;57.568;25.814;2023-02-21T04:04:21;11.32;;;5.95;;
59649;SDS011;46162;57.568;25.814;2023-02-21T04:06:58;11.40;;;5.22;;
59649;SDS011;46162;57.568;25.814;2023-02-21T04:09:28;11.65;;;5.70;;
59649;SDS011;46162;57.568;25.814;2023-02-21T04:12:01;11.07;;;5.47;;
59649;SDS011;46162;57.568;25.814;2023-02-21T04:14:32;10.80;;;5.20;;
59649;SDS011;46162;57.568;25.814;2023-02-21T04:17:02;10.07;;;4.90;;
59649;SDS011;46162;57.568;25.814;2023-02-21T04:19:31;11.65;;;5.30;;
59649;SDS011;46162;57.568;25.814;2023-02-21T04:22:02;10.65;;;5.68;;
59649;SDS011;46162;57.568;25.814;2023-02-21T04:24:33;11.85;;;6.13;;
59649;SDS011;46162;57.568;25.814;2023-02-21T04:27:01;10.13;;;4.63;;
59649;SDS011;46162;57.568;25.814;2023-02-21T04:29:37;14.70;;;6.35;;
59649;SDS011;46162;57.568;25.814;2023-02-21T04:32:05;11.60;;;5.63;;
59649;SDS011;46162;57.568;25.814;2023-02-21T04:34:35;11.10;;;5.88;;
59649;SDS011;46162;57.568;25.814;2023-02-21T04:37:04;12.18;;;5.88;;
59649;SDS011;46162;57.568;25.814;2023-02-21T04:39:34;11.82;;;5.82;;
59649;SDS011;46162;57.568;25.814;2023-02-21T04:42:02;12.97;;;6.23;;
59649;SDS011;46162;57.568;25.814;2023-02-21T04:44:31;14.43;;;6.55;;
59649;SDS011;46162;57.568;25.814;2023-02-21T04:47:00;11.95;;;6.43;;
59649;SDS011;46162;57.568;25.814;2023-02-21T04:49:29;12.20;;;5.93;;
59649;SDS011;46162;57.568;25.814;2023-02-21T04:51:57;11.57;;;6.68;;
59649;SDS011;46162;57.568;25.814;2023-02-21T04:54:29;12.80;;;5.55;;
59649;SDS011;46162;57.568;25.814;2023-02-21T04:56:59;11.75;;;5.93;;
59649;SDS011;46162;57.568;25.814;2023-02-21T04:59:28;13.52;;;6.28;;
59649;SDS011;46162;57.568;25.814;2023-02-21T05:01:56;13.35;;;7.18;;
59649;SDS011;46162;57.568;25.814;2023-02-21T05:04:28;12.55;;;6.13;;
59649;SDS011;46162;57.568;25.814;2023-02-21T05:06:57;10.68;;;5.75;;
59649;SDS011;46162;57.568;25.814;2023-02-21T05:09:26;11.80;;;6.55;;
59649;SDS011;46162;57.568;25.814;2023-02-21T05:11:54;15.93;;;8.18;;
59649;SDS011;46162;57.568;25.814;2023-02-21T05:14:25;15.60;;;7.88;;
59649;SDS011;46162;57.568;25.814;2023-02-21T05:16:54;17.40;;;8.20;;
59649;SDS011;46162;57.568;25.814;2023-02-21T05:19:23;13.38;;;7.50;;
59649;SDS011;46162;57.568;25.814;2023-02-21T05:21:54;15.02;;;8.13;;
59649;SDS011;46162;57.568;25.814;2023-02-21T05:24:24;17.35;;;7.60;;
59649;SDS011;46162;57.568;25.814;2023-02-21T05:26:53;16.30;;;8.65;;
59649;SDS011;46162;57.568;25.814;2023-02-21T05:29:23;17.23;;;9.40;;
59649;SDS011;46162;57.568;25.814;2023-02-21T05:31:53;18.13;;;8.50;;
59649;SDS011;46162;57.568;25.814;2023-02-21T05:34:22;15.05;;;7.93;;
59649;SDS011;46162;57.568;25.814;2023-02-21T05:36:50;18.23;;;7.75;;
59649;SDS011;46162;57.568;25.814;2023-02-21T05:39:19;16.13;;;8.65;;
59649;SDS011;46162;57.568;25.814;2023-02-21T05:41:48;20.63;;;10.23;;
59649;SDS011;46162;57.568;25.814;2023-02-21T05:44:18;17.92;;;8.65;;
59649;SDS011;46162;57.568;25.814;2023-02-21T05:46:51;18.70;;;9.30;;
59649;SDS011;46162;57.568;25.814;2023-02-21T05:49:20;17.50;;;9.05;;
59649;SDS011;46162;57.568;25.814;2023-02-21T05:51:49;17.75;;;9.30;;
59649;SDS011;46162;57.568;25.814;2023-02-21T05:54:19;17.73;;;9.45;;
59649;SDS011;46162;57.568;25.814;2023-02-21T05:56:49;19.08;;;9.07;;
59649;SDS011;46162;57.568;25.814;2023-02-21T05:59:19;17.55;;;10.10;;
59649;SDS011;46162;57.568;25.814;2023-02-21T06:01:51;19.63;;;10.23;;
59649;SDS011;46162;57.568;25.814;2023-02-21T06:04:19;15.30;;;7.90;;
59649;SDS011;46162;57.568;25.814;2023-02-21T06:06:48;19.33;;;9.30;;
59649;SDS011;46162;57.568;25.814;2023-02-21T06:09:18;17.02;;;8.93;;
59649;SDS011;46162;57.568;25.814;2023-02-21T06:11:47;18.60;;;8.77;;
59649;SDS011;46162;57.568;25.814;2023-02-21T06:14:17;17.20;;;8.57;;
59649;SDS011;46162;57.568;25.814;2023-02-21T06:16:47;18.00;;;9.07;;
59649;SDS011;46162;57.568;25.814;2023-02-21T06:19:18;18.25;;;9.45;;
59649;SDS011;46162;57.568;25.814;2023-02-21T06:21:47;16.52;;;8.75;;
59649;SDS011;46162;57.568;25.814;2023-02-21T06:24:16;16.83;;;8.48;;
59649;SDS011;46162;57.568;25.814;2023-02-21T06:26:45;16.23;;;8.45;;
59649;SDS011;46162;57.568;25.814;2023-02-21T06:29:14;18.30;;;9.85;;
59649;SDS011;46162;57.568;25.814;2023-02-21T06:31:43;18.15;;;8.98;;
59649;SDS011;46162;57.568;25.814;2023-02-21T06:34:11;19.73;;;8.98;;
59649;SDS011;46162;57.568;25.814;2023-02-21T06:36:42;17.75;;;8.90;;
59649;SDS011;46162;57.568;25.814;2023-02-21T06:39:10;17.52;;;9.10;;
59649;SDS011;46162;57.568;25.814;2023-02-21T06:41:39;17.48;;;9.18;;
59649;SDS011;46162;57.568;25.814;2023-02-21T06:44:08;17.45;;;7.65;;
59649;SDS011;46162;57.568;25.814;2023-02-21T06:46:37;20.80;;;9.40;;
59649;SDS011;46162;57.568;25.814;2023-02-21T06:49:06;19.63;;;9.80;;
59649;SDS011;46162;57.568;25.814;2023-02-21T06:51:35;16.08;;;9.18;;
59649;SDS011;46162;57.568;25.814;2023-02-21T06:54:07;19.23;;;9.63;;
59649;SDS011;46162;57.568;25.814;2023-02-21T06:56:36;16.15;;;8.60;;
59649;SDS011;46162;57.568;25.814;2023-02-21T06:59:05;14.75;;;8.23;;
59649;SDS011;46162;57.568;25.814;2023-02-21T07:01:34;16.00;;;8.50;;
59649;SDS011;46162;57.568;25.814;2023-02-21T07:04:03;15.15;;;7.45;;
59649;SDS011;46162;57.568;25.814;2023-02-21T07:06:32;19.98;;;9.32;;
59649;SDS011;46162;57.568;25.814;2023-02-21T07:09:01;16.48;;;8.68;;
59649;SDS011;46162;57.568;25.814;2023-02-21T07:11:33;18.48;;;9.52;;
59649;SDS011;46162;57.568;25.814;2023-02-21T07:14:02;15.20;;;8.25;;
59649;SDS011;46162;57.568;25.814;2023-02-21T07:16:31;15.57;;;8.55;;
59649;SDS011;46162;57.568;25.814;2023-02-21T07:19:00;18.38;;;8.82;;
59649;SDS011;46162;57.568;25.814;2023-02-21T07:21:29;16.88;;;8.73;;
59649;SDS011;46162;57.568;25.814;2023-02-21T07:23:58;16.85;;;8.55;;
59649;SDS011;46162;57.568;25.814;2023-02-21T07:26:26;14.98;;;8.55;;
59649;SDS011;46162;57.568;25.814;2023-02-21T07:28:57;15.63;;;9.35;;
59649;SDS011;46162;57.568;25.814;2023-02-21T07:31:25;14.40;;;8.03;;
59649;SDS011;46162;57.568;25.814;2023-02-21T07:33:54;17.75;;;9.48;;
59649;SDS011;46162;57.568;25.814;2023-02-21T07:36:23;17.17;;;8.63;;
59649;SDS011;46162;57.568;25.814;2023-02-21T07:38:52;16.85;;;8.38;;
59649;SDS011;46162;57.568;25.814;2023-02-21T07:41:21;16.88;;;8.48;;
59649;SDS011;46162;57.568;25.814;2023-02-21T07:43:49;16.42;;;8.30;;
59649;SDS011;46162;57.568;25.814;2023-02-21T07:46:20;16.00;;;7.72;;
59649;SDS011;46162;57.568;25.814;2023-02-21T07:48:54;18.02;;;8.32;;
59649;SDS011;46162;57.568;25.814;2023-02-21T07:51:26;17.95;;;8.05;;
59649;SDS011;46162;57.568;25.814;2023-02-21T07:53:55;13.27;;;7.35;;
59649;SDS011;46162;57.568;25.814;2023-02-21T07:56:24;15.60;;;8.05;;
59649;SDS011;46162;57.568;25.814;2023-02-21T07:58:53;15.35;;;8.35;;
59649;SDS011;46162;57.568;25.814;2023-02-21T08:01:24;13.98;;;7.20;;
59649;SDS011;46162;57.568;25.814;2023-02-21T08:06:21;14.20;;;7.32;;
59649;SDS011;46162;57.568;25.814;2023-02-21T08:08:50;13.55;;;7.03;;
59649;SDS011;46162;57.568;25.814;2023-02-21T08:11:19;15.57;;;8.15;;
59649;SDS011;46162;57.568;25.814;2023-02-21T08:13:48;15.65;;;8.00;;
59649;SDS011;46162;57.568;25.814;2023-02-21T08:16:17;14.88;;;7.78;;
59649;SDS011;46162;57.568;25.814;2023-02-21T08:18:47;14.38;;;7.53;;
59649;SDS011;46162;57.568;25.814;2023-02-21T08:21:16;13.43;;;6.28;;
59649;SDS011;46162;57.568;25.814;2023-02-21T08:23:45;17.42;;;8.13;;
59649;SDS011;46162;57.568;25.814;2023-02-21T08:26:14;12.77;;;7.25;;
59649;SDS011;46162;57.568;25.814;2023-02-21T08:28:43;13.85;;;7.22;;
59649;SDS011;46162;57.568;25.814;2023-02-21T08:31:12;15.30;;;8.18;;
59649;SDS011;46162;57.568;25.814;2023-02-21T08:33:41;14.55;;;6.63;;
59649;SDS011;46162;57.568;25.814;2023-02-21T08:36:13;14.57;;;7.55;;
59649;SDS011;46162;57.568;25.814;2023-02-21T08:38:42;14.00;;;7.38;;
59649;SDS011;46162;57.568;25.814;2023-02-21T08:41:10;13.40;;;6.85;;
59649;SDS011;46162;57.568;25.814;2023-02-21T08:43:40;13.90;;;7.70;;
59649;SDS011;46162;57.568;25.814;2023-02-21T08:46:08;14.38;;;8.02;;
59649;SDS011;46162;57.568;25.814;2023-02-21T08:48:37;13.98;;;6.97;;
59649;SDS011;46162;57.568;25.814;2023-02-21T08:51:06;13.15;;;7.43;;
59649;SDS011;46162;57.568;25.814;2023-02-21T08:53:36;11.25;;;6.47;;
59649;SDS011;46162;57.568;25.814;2023-02-21T08:56:04;13.37;;;7.10;;
59649;SDS011;46162;57.568;25.814;2023-02-21T08:58:33;14.98;;;8.02;;
59649;SDS011;46162;57.568;25.814;2023-02-21T09:01:03;12.63;;;7.10;;
59649;SDS011;46162;57.568;25.814;2023-02-21T09:03:33;13.80;;;7.53;;
59649;SDS011;46162;57.568;25.814;2023-02-21T09:06:01;13.02;;;7.00;;
59649;SDS011;46162;57.568;25.814;2023-02-21T09:08:30;14.57;;;7.85;;
59649;SDS011;46162;57.568;25.814;2023-02-21T09:11:01;13.85;;;7.50;;
59649;SDS011;46162;57.568;25.814;2023-02-21T09:13:30;14.77;;;7.32;;
59649;SDS011;46162;57.568;25.814;2023-02-21T09:16:00;13.65;;;7.10;;
59649;SDS011;46162;57.568;25.814;2023-02-21T09:18:30;11.60;;;6.20;;
59649;SDS011;46162;57.568;25.814;2023-02-21T09:21:00;12.65;;;6.57;;
59649;SDS011;46162;57.568;25.814;2023-02-21T09:23:29;14.32;;;7.68;;
59649;SDS011;46162;57.568;25.814;2023-02-21T09:26:02;14.10;;;7.07;;
59649;SDS011;46162;57.568;25.814;2023-02-21T09:28:31;13.65;;;7.28;;
59649;SDS011;46162;57.568;25.814;2023-02-21T09:31:00;12.98;;;7.22;;
59649;SDS011;46162;57.568;25.814;2023-02-21T09:33:28;12.25;;;6.40;;
59649;SDS011;46162;57.568;25.814;2023-02-21T09:35:57;14.98;;;6.60;;
59649;SDS011;46162;57.568;25.814;2023-02-21T09:38:26;14.40;;;7.50;;
59649;SDS011;46162;57.568;25.814;2023-02-21T09:40:56;13.68;;;7.57;;
59649;SDS011;46162;57.568;25.814;2023-02-21T09:43:30;14.07;;;6.90;;
59649;SDS011;46162;57.568;25.814;2023-02-21T09:46:04;12.82;;;6.95;;
59649;SDS011;46162;57.568;25.814;2023-02-21T09:48:38;14.75;;;6.90;;
59649;SDS011;46162;57.568;25.814;2023-02-21T09:51:09;13.00;;;7.05;;
59649;SDS011;46162;57.568;25.814;2023-02-21T09:53:41;12.70;;;6.88;;
59649;SDS011;46162;57.568;25.814;2023-02-21T09:56:11;13.30;;;6.80;;
59649;SDS011;46162;57.568;25.814;2023-02-21T09:58:47;14.00;;;7.13;;
59649;SDS011;46162;57.568;25.814;2023-02-21T10:01:19;13.98;;;7.43;;
59649;SDS011;46162;57.568;25.814;2023-02-21T10:03:54;13.13;;;6.78;;
59649;SDS011;46162;57.568;25.814;2023-02-21T10:06:34;15.50;;;8.35;;
59649;SDS011;46162;57.568;25.814;2023-02-21T10:09:16;12.38;;;6.80;;
59649;SDS011;46162;57.568;25.814;2023-02-21T10:11:57;14.82;;;7.60;;
59649;SDS011;46162;57.568;25.814;2023-02-21T10:14:36;15.98;;;7.22;;
59649;SDS011;46162;57.568;25.814;2023-02-21T10:17:23;12.82;;;6.85;;
59649;SDS011;46162;57.568;25.814;2023-02-21T10:19:59;14.77;;;8.15;;
59649;SDS011;46162;57.568;25.814;2023-02-21T10:22:34;12.13;;;7.13;;
59649;SDS011;46162;57.568;25.814;2023-02-21T10:25:11;12.90;;;6.85;;
59649;SDS011;46162;57.568;25.814;2023-02-21T10:27:48;14.77;;;8.38;;
59649;SDS011;46162;57.568;25.814;2023-02-21T10:30:23;13.02;;;6.93;;
59649;SDS011;46162;57.568;25.814;2023-02-21T10:32:56;14.02;;;7.10;;
59649;SDS011;46162;57.568;25.814;2023-02-21T10:35:24;13.00;;;6.75;;
59649;SDS011;46162;57.568;25.814;2023-02-21T10:37:54;13.85;;;7.28;;
59649;SDS011;46162;57.568;25.814;2023-02-21T10:40:27;12.00;;;6.80;;
59649;SDS011;46162;57.568;25.814;2023-02-21T10:43:00;14.73;;;7.28;;
59649;SDS011;46162;57.568;25.814;2023-02-21T10:45:36;15.18;;;7.53;;
59649;SDS011;46162;57.568;25.814;2023-02-21T10:48:10;14.98;;;7.30;;
59649;SDS011;46162;57.568;25.814;2023-02-21T10:50:41;13.70;;;6.57;;
59649;SDS011;46162;57.568;25.814;2023-02-21T10:53:22;14.35;;;7.18;;
59649;SDS011;46162;57.568;25.814;2023-02-21T10:56:08;16.88;;;7.40;;
59649;SDS011;46162;57.568;25.814;2023-02-21T10:58:47;11.55;;;6.93;;
59649;SDS011;46162;57.568;25.814;2023-02-21T11:01:19;13.60;;;7.00;;
59649;SDS011;46162;57.568;25.814;2023-02-21T11:03:52;15.05;;;7.32;;
59649;SDS011;46162;57.568;25.814;2023-02-21T11:06:25;14.30;;;7.38;;
59649;SDS011;46162;57.568;25.814;2023-02-21T11:08:58;15.50;;;7.50;;
59649;SDS011;46162;57.568;25.814;2023-02-21T11:11:34;14.07;;;7.40;;
59649;SDS011;46162;57.568;25.814;2023-02-21T11:14:06;13.95;;;7.72;;
59649;SDS011;46162;57.568;25.814;2023-02-21T11:19:53;15.85;;;7.60;;
59649;SDS011;46162;57.568;25.814;2023-02-21T11:22:24;14.77;;;7.45;;
59649;SDS011;46162;57.568;25.814;2023-02-21T11:25:03;15.65;;;7.60;;
59649;SDS011;46162;57.568;25.814;2023-02-21T11:27:34;13.30;;;6.97;;
59649;SDS011;46162;57.568;25.814;2023-02-21T11:30:12;14.98;;;7.95;;
59649;SDS011;46162;57.568;25.814;2023-02-21T11:32:47;13.23;;;7.03;;
59649;SDS011;46162;57.568;25.814;2023-02-21T11:35:24;17.02;;;8.07;;
59649;SDS011;46162;57.568;25.814;2023-02-21T11:37:55;15.80;;;8.15;;
59649;SDS011;46162;57.568;25.814;2023-02-21T11:43:10;13.00;;;6.33;;
59649;SDS011;46162;57.568;25.814;2023-02-21T11:45:44;13.80;;;7.68;;
59649;SDS011;46162;57.568;25.814;2023-02-21T11:48:27;15.40;;;7.03;;
59649;SDS011;46162;57.568;25.814;2023-02-21T11:51:02;13.93;;;6.90;;
59649;SDS011;46162;57.568;25.814;2023-02-21T11:53:35;12.77;;;6.47;;
59649;SDS011;46162;57.568;25.814;2023-02-21T11:56:23;13.23;;;6.97;;
59649;SDS011;46162;57.568;25.814;2023-02-21T11:59:02;14.77;;;7.00;;
59649;SDS011;46162;57.568;25.814;2023-02-21T12:01:42;15.55;;;7.45;;
59649;SDS011;46162;57.568;25.814;2023-02-21T12:04:32;13.10;;;7.63;;
59649;SDS011;46162;57.568;25.814;2023-02-21T12:07:16;15.38;;;8.73;;
59649;SDS011;46162;57.568;25.814;2023-02-21T12:09:54;16.20;;;8.02;;
59649;SDS011;46162;57.568;25.814;2023-02-21T12:12:32;16.38;;;8.63;;
59649;SDS011;46162;57.568;25.814;2023-02-21T12:15:10;15.65;;;7.95;;
59649;SDS011;46162;57.568;25.814;2023-02-21T12:20:59;14.30;;;7.47;;
59649;SDS011;46162;57.568;25.814;2023-02-21T12:23:43;14.00;;;7.40;;
59649;SDS011;46162;57.568;25.814;2023-02-21T12:26:25;17.52;;;8.50;;
59649;SDS011;46162;57.568;25.814;2023-02-21T12:29:08;14.93;;;7.75;;
59649;SDS011;46162;57.568;25.814;2023-02-21T12:31:52;165.95;;;51.33;;
59649;SDS011;46162;57.568;25.814;2023-02-21T12:34:53;124.95;;;39.42;;
59649;SDS011;46162;57.568;25.814;2023-02-21T12:37:33;104.05;;;41.90;;
59649;SDS011;46162;57.568;25.814;2023-02-21T12:40:14;20.95;;;9.52;;
59649;SDS011;46162;57.568;25.814;2023-02-21T12:43:10;41.88;;;20.95;;
59649;SDS011;46162;57.568;25.814;2023-02-21T12:45:53;17.02;;;8.98;;
59649;SDS011;46162;57.568;25.814;2023-02-21T12:48:30;19.48;;;9.80;;
59649;SDS011;46162;57.568;25.814;2023-02-21T12:51:05;18.50;;;9.65;;
59649;SDS011;46162;57.568;25.814;2023-02-21T12:53:40;17.75;;;8.95;;
59649;SDS011;46162;57.568;25.814;2023-02-21T12:56:15;17.83;;;9.13;;
59649;SDS011;46162;57.568;25.814;2023-02-21T12:58:52;21.23;;;10.07;;
59649;SDS011;46162;57.568;25.814;2023-02-21T13:01:27;20.17;;;9.25;;
59649;SDS011;46162;57.568;25.814;2023-02-21T13:04:03;22.25;;;10.65;;
59649;SDS011;46162;57.568;25.814;2023-02-21T13:06:44;19.95;;;9.70;;
59649;SDS011;46162;57.568;25.814;2023-02-21T13:09:20;17.73;;;9.43;;
59649;SDS011;46162;57.568;25.814;2023-02-21T13:11:58;22.20;;;11.32;;
59649;SDS011;46162;57.568;25.814;2023-02-21T13:14:34;17.27;;;9.20;;
59649;SDS011;46162;57.568;25.814;2023-02-21T13:17:09;17.90;;;9.40;;
59649;SDS011;46162;57.568;25.814;2023-02-21T13:19:43;19.40;;;9.70;;
59649;SDS011;46162;57.568;25.814;2023-02-21T13:26:00;17.73;;;9.10;;
59649;SDS011;46162;57.568;25.814;2023-02-21T13:28:42;20.38;;;10.23;;
59649;SDS011;46162;57.568;25.814;2023-02-21T13:31:17;21.00;;;10.27;;
59649;SDS011;46162;57.568;25.814;2023-02-21T13:33:48;19.55;;;10.68;;
59649;SDS011;46162;57.568;25.814;2023-02-21T13:36:21;19.95;;;10.13;;
59649;SDS011;46162;57.568;25.814;2023-02-21T13:38:56;22.05;;;10.88;;
59649;SDS011;46162;57.568;25.814;2023-02-21T13:41:28;21.40;;;11.15;;
59649;SDS011;46162;57.568;25.814;2023-02-21T13:44:05;23.25;;;11.13;;
59649;SDS011;46162;57.568;25.814;2023-02-21T13:46:59;23.05;;;11.65;;
59649;SDS011;46162;57.568;25.814;2023-02-21T13:49:37;25.73;;;12.20;;
59649;SDS011;46162;57.568;25.814;2023-02-21T13:55:27;23.58;;;12.00;;
59649;SDS011;46162;57.568;25.814;2023-02-21T14:01:15;23.20;;;11.57;;
59649;SDS011;46162;57.568;25.814;2023-02-21T14:03:59;25.77;;;13.50;;
59649;SDS011;46162;57.568;25.814;2023-02-21T14:07:20;27.17;;;14.70;;
59649;SDS011;46162;57.568;25.814;2023-02-21T14:10:13;25.20;;;12.77;;
59649;SDS011;46162;57.568;25.814;2023-02-21T14:12:53;25.15;;;11.30;;
59649;SDS011;46162;57.568;25.814;2023-02-21T14:15:34;29.42;;;13.32;;
59649;SDS011;46162;57.568;25.814;2023-02-21T14:18:16;26.40;;;13.50;;
59649;SDS011;46162;57.568;25.814;2023-02-21T14:20:49;25.92;;;13.40;;
59649;SDS011;46162;57.568;25.814;2023-02-21T14:23:21;29.20;;;14.05;;
59649;SDS011;46162;57.568;25.814;2023-02-21T14:25:56;26.98;;;14.00;;
59649;SDS011;46162;57.568;25.814;2023-02-21T14:31:45;30.13;;;14.45;;
59649;SDS011;46162;57.568;25.814;2023-02-21T14:34:31;28.48;;;14.27;;
59649;SDS011;46162;57.568;25.814;2023-02-21T14:37:03;26.13;;;14.20;;
59649;SDS011;46162;57.568;25.814;2023-02-21T14:39:42;31.50;;;15.20;;
59649;SDS011;46162;57.568;25.814;2023-02-21T14:45:21;28.95;;;15.15;;
59649;SDS011;46162;57.568;25.814;2023-02-21T14:47:59;30.70;;;15.60;;
59649;SDS011;46162;57.568;25.814;2023-02-21T14:53:23;32.45;;;15.18;;
59649;SDS011;46162;57.568;25.814;2023-02-21T15:02:13;35.03;;;15.80;;
59649;SDS011;46162;57.568;25.814;2023-02-21T15:04:50;32.58;;;15.82;;
59649;SDS011;46162;57.568;25.814;2023-02-21T15:07:27;34.30;;;16.52;;
59649;SDS011;46162;57.568;25.814;2023-02-21T15:10:04;31.52;;;16.17;;
59649;SDS011;46162;57.568;25.814;2023-02-21T15:12:38;33.70;;;16.48;;
59649;SDS011;46162;57.568;25.814;2023-02-21T15:15:13;30.20;;;15.60;;
59649;SDS011;46162;57.568;25.814;2023-02-21T15:17:44;29.30;;;15.15;;
59649;SDS011;46162;57.568;25.814;2023-02-21T15:20:23;30.58;;;14.88;;
59649;SDS011;46162;57.568;25.814;2023-02-21T15:22:57;32.45;;;16.95;;
59649;SDS011;46162;57.568;25.814;2023-02-21T15:25:28;34.65;;;16.33;;
59649;SDS011;46162;57.568;25.814;2023-02-21T15:28:01;29.38;;;14.82;;
59649;SDS011;46162;57.568;25.814;2023-02-21T15:30:34;31.35;;;14.50;;
59649;SDS011;46162;57.568;25.814;2023-02-21T15:33:13;33.78;;;16.15;;
59649;SDS011;46162;57.568;25.814;2023-02-21T15:35:45;34.42;;;16.40;;
59649;SDS011;46162;57.568;25.814;2023-02-21T15:38:21;30.77;;;15.15;;
59649;SDS011;46162;57.568;25.814;2023-02-21T15:40:55;30.85;;;14.60;;
59649;SDS011;46162;57.568;25.814;2023-02-21T15:43:30;30.20;;;14.88;;
59649;SDS011;46162;57.568;25.814;2023-02-21T15:46:06;28.00;;;14.35;;
59649;SDS011;46162;57.568;25.814;2023-02-21T15:48:37;30.42;;;14.05;;
59649;SDS011;46162;57.568;25.814;2023-02-21T15:51:06;29.90;;;13.55;;
59649;SDS011;46162;57.568;25.814;2023-02-21T15:53:38;26.95;;;12.57;;
59649;SDS011;46162;57.568;25.814;2023-02-21T15:56:15;30.30;;;14.45;;
59649;SDS011;46162;57.568;25.814;2023-02-21T16:01:39;26.98;;;12.80;;
59649;SDS011;46162;57.568;25.814;2023-02-21T16:04:16;25.33;;;12.30;;
59649;SDS011;46162;57.568;25.814;2023-02-21T16:06:47;25.90;;;11.90;;